Time;durP1;ratioP1;P1;durP2;ratioP2;P2;SDS_P1;SDS_P2;PMS_P1;PMS_P2;Temp;Humidity;BMP_temperature;BMP_pressure;BME280_temperature;BME280_humidity;BME280_pressure;Samples;Min_cycle;Max_cycle;Signal;HPM_P1;HPM_P2
2022/05/09 00:02:11;;;;;;;1.30;1.00;;;11.70;99.90;;;;;;4933792;29;20220;-70
2022/05/09 00:04:40;;;;;;;3.03;1.10;;;11.60;99.90;;;;;;4935088;29;20263;-71
2022/05/09 00:07:07;;;;;;;3.00;0.83;;;11.50;99.90;;;;;;4935032;29;20695;-78
2022/05/09 00:09:34;;;;;;;2.07;0.90;;;11.50;99.90;;;;;;4935426;29;20212;-74
2022/05/09 00:12:02;;;;;;;1.13;0.90;;;11.40;99.90;;;;;;4934875;29;20678;-70
2022/05/09 00:14:30;;;;;;;3.03;1.33;;;11.40;99.90;;;;;;4935662;29;20208;-70
2022/05/09 00:16:56;;;;;;;3.07;1.27;;;11.40;99.90;;;;;;4934690;29;20235;-71
2022/05/09 00:19:23;;;;;;;2.77;1.20;;;11.30;99.90;;;;;;4934882;29;20209;-71
2022/05/09 00:21:54;;;;;;;2.53;1.40;;;11.40;99.90;;;;;;4934914;29;20579;-71
2022/05/09 00:24:21;;;;;;;3.90;1.43;;;11.40;99.90;;;;;;4934775;29;20636;-70
2022/05/09 00:26:50;;;;;;;2.00;1.00;;;11.30;99.90;;;;;;4934903;29;20248;-71
2022/05/09 00:29:18;;;;;;;4.43;1.00;;;11.20;99.90;;;;;;4934986;29;20690;-71
2022/05/09 00:31:47;;;;;;;1.43;1.10;;;11.10;99.90;;;;;;4935063;29;20208;-70
2022/05/09 00:34:17;;;;;;;5.20;1.30;;;11.00;99.90;;;;;;4934431;29;20208;-71
2022/05/09 00:36:44;;;;;;;4.10;1.00;;;11.00;99.90;;;;;;4934745;29;20299;-70
2022/05/09 00:39:13;;;;;;;3.10;1.00;;;11.00;99.90;;;;;;4935066;29;20208;-72
2022/05/09 00:41:41;;;;;;;1.90;1.00;;;11.00;99.90;;;;;;4934657;29;20212;-70
2022/05/09 00:44:10;;;;;;;3.53;1.17;;;10.90;99.90;;;;;;4935041;29;20260;-70
2022/05/09 00:46:38;;;;;;;2.63;1.37;;;10.90;99.90;;;;;;4934612;29;20263;-70
2022/05/09 00:49:10;;;;;;;4.30;1.60;;;10.90;99.90;;;;;;4933745;29;20289;-71
2022/05/09 00:51:38;;;;;;;4.47;1.00;;;10.90;99.90;;;;;;4934250;29;20209;-70
2022/05/09 00:54:06;;;;;;;3.27;1.10;;;10.90;99.90;;;;;;4934542;29;20209;-74
2022/05/09 00:56:41;;;;;;;4.13;1.10;;;10.90;99.90;;;;;;4934238;29;20295;-70
2022/05/09 00:59:12;;;;;;;2.60;1.10;;;10.90;99.90;;;;;;4934359;29;20232;-70
2022/05/09 01:01:40;;;;;;;1.40;1.03;;;10.90;99.90;;;;;;4934565;29;20209;-70
2022/05/09 01:04:11;;;;;;;2.40;1.20;;;10.80;99.90;;;;;;4933487;29;20209;-73
2022/05/09 01:06:38;;;;;;;2.77;1.20;;;10.80;99.90;;;;;;4932969;29;20711;-70
2022/05/09 01:09:06;;;;;;;4.27;1.10;;;10.70;99.90;;;;;;4935495;29;20668;-71
2022/05/09 01:11:36;;;;;;;4.40;1.30;;;10.60;99.90;;;;;;4937510;29;20216;-70
2022/05/09 01:14:07;;;;;;;2.80;1.23;;;10.50;99.90;;;;;;4938243;29;20216;-70
2022/05/09 01:16:35;;;;;;;3.73;1.17;;;10.50;99.90;;;;;;4938401;29;20209;-70
2022/05/09 01:19:07;;;;;;;2.80;1.30;;;10.60;99.90;;;;;;4938298;29;20308;-70
2022/05/09 01:21:38;;;;;;;2.20;1.20;;;10.50;99.90;;;;;;4937981;29;20549;-69
2022/05/09 01:24:07;;;;;;;1.70;1.20;;;10.50;99.90;;;;;;4937168;29;20208;-71
2022/05/09 01:26:35;;;;;;;2.17;1.27;;;10.60;99.90;;;;;;4937179;29;20228;-71
2022/05/09 01:29:06;;;;;;;2.20;1.50;;;10.60;99.90;;;;;;4937437;29;20208;-70
2022/05/09 01:31:33;;;;;;;3.97;1.60;;;10.50;99.90;;;;;;4937779;29;20209;-71
2022/05/09 01:34:02;;;;;;;1.87;1.27;;;10.40;99.90;;;;;;4937620;29;20217;-70
2022/05/09 01:36:34;;;;;;;2.83;1.60;;;10.40;99.90;;;;;;4937371;29;20215;-70
2022/05/09 01:39:05;;;;;;;5.73;1.27;;;10.40;99.90;;;;;;4936646;29;20209;-70
2022/05/09 01:41:37;;;;;;;2.43;1.20;;;10.30;99.90;;;;;;4937335;29;20295;-70
2022/05/09 01:44:04;;;;;;;3.27;1.40;;;10.20;99.90;;;;;;4937661;29;20205;-70
2022/05/09 01:46:32;;;;;;;1.60;1.20;;;10.20;99.90;;;;;;4937312;29;20239;-70
2022/05/09 01:51:45;;;;;;;3.70;1.33;;;10.10;99.90;;;;;;4937082;29;20213;-70
2022/05/09 01:54:14;;;;;;;2.90;1.30;;;10.10;99.90;;;;;;4937896;29;20213;-70
2022/05/09 01:56:42;;;;;;;4.83;1.43;;;10.10;99.90;;;;;;4937274;29;20209;-72
2022/05/09 01:59:11;;;;;;;2.27;1.30;;;10.10;99.90;;;;;;4937345;29;20205;-70
2022/05/09 02:01:39;;;;;;;5.03;1.30;;;10.00;99.90;;;;;;4937818;29;20663;-70
2022/05/09 02:04:07;;;;;;;2.63;1.30;;;10.00;99.90;;;;;;4937758;29;20231;-71
2022/05/09 02:06:34;;;;;;;5.30;1.63;;;10.00;99.90;;;;;;4937410;29;20236;-70
2022/05/09 02:09:01;;;;;;;5.63;1.53;;;10.00;99.90;;;;;;4937384;29;20209;-70
2022/05/09 02:11:29;;;;;;;4.50;1.10;;;10.00;99.90;;;;;;4936879;29;20223;-71
2022/05/09 02:13:55;;;;;;;2.37;1.50;;;10.00;99.90;;;;;;4936594;29;20686;-70
2022/05/09 02:16:22;;;;;;;4.80;1.27;;;9.90;99.90;;;;;;4937379;29;20219;-72
2022/05/09 02:18:49;;;;;;;5.37;1.80;;;9.80;99.90;;;;;;4936902;29;20209;-71
2022/05/09 02:21:16;;;;;;;2.83;1.80;;;9.80;99.90;;;;;;4937079;29;20209;-70
2022/05/09 02:23:43;;;;;;;4.73;1.30;;;9.80;99.90;;;;;;4936625;29;20223;-71
2022/05/09 02:26:10;;;;;;;2.83;1.60;;;9.70;99.90;;;;;;4936358;29;20240;-71
2022/05/09 02:28:38;;;;;;;2.13;1.30;;;9.70;99.90;;;;;;4936573;29;20232;-70
2022/05/09 02:31:05;;;;;;;2.00;1.30;;;9.70;99.90;;;;;;4936018;29;20205;-70
2022/05/09 02:33:32;;;;;;;2.37;1.57;;;9.70;99.90;;;;;;4937208;29;20208;-71
2022/05/09 02:36:00;;;;;;;4.10;1.43;;;9.60;99.90;;;;;;4937040;29;20640;-71
2022/05/09 02:38:28;;;;;;;4.00;1.20;;;9.60;99.90;;;;;;4936977;29;20232;-70
2022/05/09 02:40:55;;;;;;;3.47;1.40;;;9.60;99.90;;;;;;4936929;29;20205;-71
2022/05/09 02:43:22;;;;;;;2.80;1.20;;;9.60;99.90;;;;;;4936917;29;20204;-70
2022/05/09 02:45:50;;;;;;;2.47;1.40;;;9.50;99.90;;;;;;4936834;29;20212;-71
2022/05/09 02:48:18;;;;;;;2.77;1.50;;;9.50;99.90;;;;;;4936600;29;20718;-71
2022/05/09 02:50:45;;;;;;;2.83;1.87;;;9.40;99.90;;;;;;4936904;29;20219;-70
2022/05/09 02:53:13;;;;;;;2.40;1.53;;;9.40;99.90;;;;;;4936706;29;20928;-71
2022/05/09 02:55:40;;;;;;;2.57;1.40;;;9.40;99.90;;;;;;4936841;29;20205;-70
2022/05/09 02:58:07;;;;;;;4.20;1.43;;;9.50;99.90;;;;;;4936630;29;20232;-71
2022/05/09 03:00:34;;;;;;;2.80;1.40;;;9.40;99.90;;;;;;4936915;29;20301;-72
2022/05/09 03:05:47;;;;;;;2.73;1.30;;;9.50;99.90;;;;;;4936107;29;20231;-71
2022/05/09 03:08:15;;;;;;;2.57;1.73;;;9.50;99.90;;;;;;4936100;29;20718;-71
2022/05/09 03:10:43;;;;;;;2.57;1.67;;;9.40;99.90;;;;;;4935916;29;20316;-70
2022/05/09 03:13:12;;;;;;;3.57;1.60;;;9.40;99.90;;;;;;4934598;29;20236;-71
2022/05/09 03:15:41;;;;;;;2.93;1.50;;;9.40;99.90;;;;;;4935306;29;20295;-72
2022/05/09 03:18:11;;;;;;;2.93;1.60;;;9.40;99.90;;;;;;4935344;29;20711;-73
2022/05/09 03:20:38;;;;;;;4.27;1.57;;;9.30;99.90;;;;;;4936072;29;20317;-72
2022/05/09 03:23:07;;;;;;;2.23;1.60;;;9.20;99.90;;;;;;4935567;29;20211;-73
2022/05/09 03:25:35;;;;;;;1.87;1.27;;;9.20;99.90;;;;;;4935784;29;20257;-71
2022/05/09 03:28:03;;;;;;;4.83;1.70;;;9.20;99.90;;;;;;4935367;29;20255;-71
2022/05/09 03:30:30;;;;;;;1.57;1.27;;;9.20;99.90;;;;;;4934874;29;20244;-70
2022/05/09 03:32:57;;;;;;;1.93;1.50;;;9.10;99.90;;;;;;4935225;29;20564;-71
2022/05/09 03:35:25;;;;;;;5.47;1.90;;;9.20;99.90;;;;;;4935907;29;20247;-70
2022/05/09 03:37:52;;;;;;;2.57;1.60;;;9.10;99.90;;;;;;4935642;29;20232;-70
2022/05/09 03:40:21;;;;;;;5.47;1.83;;;9.20;99.90;;;;;;4936109;29;20211;-72
2022/05/09 03:42:48;;;;;;;5.23;1.70;;;9.20;99.90;;;;;;4935407;29;20209;-74
2022/05/09 03:45:15;;;;;;;4.40;1.67;;;9.20;99.90;;;;;;4935420;29;20312;-71
2022/05/09 03:47:42;;;;;;;3.33;1.30;;;9.10;99.90;;;;;;4935716;29;20244;-72
2022/05/09 03:50:12;;;;;;;2.03;1.40;;;9.10;99.90;;;;;;4935510;29;20204;-73
2022/05/09 03:52:40;;;;;;;4.67;1.70;;;9.00;99.90;;;;;;4935873;29;20209;-71
2022/05/09 03:55:08;;;;;;;4.03;1.60;;;9.00;99.90;;;;;;4936299;29;20220;-72
2022/05/09 03:57:45;;;;;;;1.87;1.40;;;9.00;99.90;;;;;;4935682;29;20236;-73
2022/05/09 04:00:14;;;;;;;1.83;1.37;;;9.00;99.90;;;;;;4935666;29;20209;-71
2022/05/09 04:02:41;;;;;;;2.20;1.60;;;9.00;99.90;;;;;;4935477;29;20215;-72
2022/05/09 04:05:14;;;;;;;6.50;1.83;;;9.00;99.90;;;;;;4935388;29;20213;-72
2022/05/09 04:07:44;;;;;;;2.07;1.60;;;8.90;99.90;;;;;;4932027;29;20320;-71
2022/05/09 04:10:10;;;;;;;2.43;1.40;;;8.90;99.90;;;;;;4920689;29;20213;-72
2022/05/09 04:12:37;;;;;;;3.03;1.30;;;9.00;99.90;;;;;;4934929;29;20205;-72
2022/05/09 04:17:49;;;;;;;3.20;1.60;;;9.20;99.90;;;;;;4935515;29;20231;-71
2022/05/09 04:20:16;;;;;;;3.77;1.63;;;9.20;99.90;;;;;;4935606;29;20212;-71
2022/05/09 04:22:44;;;;;;;4.10;1.80;;;9.20;99.90;;;;;;4935692;29;20668;-72
2022/05/09 04:25:12;;;;;;;3.03;1.40;;;9.20;99.90;;;;;;4918700;29;20214;-71
2022/05/09 04:27:39;;;;;;;1.97;1.40;;;9.20;99.90;;;;;;4916431;29;20245;-74
2022/05/09 04:30:08;;;;;;;4.90;1.63;;;9.20;99.90;;;;;;4930363;29;20694;-72
2022/05/09 04:32:36;;;;;;;2.60;1.53;;;9.20;99.90;;;;;;4936097;29;20209;-75
2022/05/09 04:35:02;;;;;;;2.13;1.43;;;9.20;99.90;;;;;;4935581;29;20217;-71
2022/05/09 04:37:29;;;;;;;2.87;1.60;;;9.20;99.90;;;;;;4934684;29;20224;-72
2022/05/09 04:39:59;;;;;;;2.30;1.27;;;9.30;99.90;;;;;;4935728;29;20209;-73
2022/05/09 04:42:25;;;;;;;2.63;1.67;;;9.30;99.90;;;;;;4936509;29;20205;-74
2022/05/09 04:44:52;;;;;;;1.93;1.57;;;9.40;99.90;;;;;;4938641;29;20552;-72
2022/05/09 04:47:19;;;;;;;3.60;2.10;;;9.60;99.90;;;;;;4936639;29;20263;-72
2022/05/09 04:49:46;;;;;;;1.90;1.30;;;10.10;99.90;;;;;;4937663;29;20205;-79
2022/05/09 04:52:12;;;;;;;3.47;1.70;;;10.80;99.90;;;;;;4938588;29;20205;-72
2022/05/09 04:54:39;;;;;;;2.93;1.50;;;11.50;99.90;;;;;;4938910;29;20205;-72
2022/05/09 04:57:07;;;;;;;2.27;1.43;;;12.20;99.90;;;;;;4938365;29;20300;-74
2022/05/09 04:59:34;;;;;;;2.17;1.30;;;12.80;99.90;;;;;;4919429;29;20237;-72
2022/05/09 05:02:01;;;;;;;3.17;1.23;;;13.50;99.90;;;;;;4933594;29;20215;-76
2022/05/09 05:04:28;;;;;;;2.87;1.33;;;14.20;99.90;;;;;;4936682;29;20209;-73
2022/05/09 05:06:56;;;;;;;1.97;1.30;;;14.80;99.90;;;;;;4919338;29;20238;-72
2022/05/09 05:09:23;;;;;;;2.10;1.17;;;15.40;99.90;;;;;;4933279;29;20256;-72
2022/05/09 05:11:50;;;;;;;2.37;1.43;;;16.00;99.90;;;;;;4936795;29;20653;-72
2022/05/09 05:14:18;;;;;;;2.50;1.07;;;16.70;99.90;;;;;;4937729;29;20256;-71
2022/05/09 05:17:03;;;;;;;2.80;1.17;;;17.30;99.90;;;;;;4937538;29;20205;-74
2022/05/09 05:19:32;;;;;;;1.60;1.17;;;17.90;99.90;;;;;;4920395;29;20683;-76
2022/05/09 05:21:59;;;;;;;3.35;1.00;;;18.60;99.90;;;;;;4919393;29;20216;-72
2022/05/09 05:24:26;;;;;;;2.17;1.17;;;19.00;99.90;;;;;;4918616;29;20229;-73
2022/05/09 05:26:54;;;;;;;1.77;1.02;;;19.60;99.60;;;;;;4918925;29;20245;-72
2022/05/09 05:29:22;;;;;;;3.00;1.25;;;20.20;98.80;;;;;;4919936;29;20209;-71
2022/05/09 05:31:49;;;;;;;2.00;1.10;;;20.70;97.70;;;;;;4930569;29;20736;-79
2022/05/09 05:34:16;;;;;;;2.42;1.40;;;21.00;97.00;;;;;;4937694;29;20231;-72
2022/05/09 05:36:43;;;;;;;1.85;1.20;;;21.60;96.50;;;;;;4937447;29;20205;-72
2022/05/09 05:39:15;;;;;;;2.10;1.27;;;22.10;95.60;;;;;;4937558;29;20209;-71
2022/05/09 05:41:42;;;;;;;1.90;1.13;;;22.30;94.70;;;;;;4937534;29;20212;-75
2022/05/09 05:44:11;;;;;;;4.72;1.70;;;22.50;93.50;;;;;;4937357;29;20560;-78
2022/05/09 05:46:40;;;;;;;2.67;1.45;;;22.70;92.50;;;;;;4936447;29;20756;-76
2022/05/09 05:49:07;;;;;;;3.13;1.55;;;22.10;93.00;;;;;;4936447;29;20264;-79
2022/05/09 05:51:33;;;;;;;2.15;1.55;;;22.10;92.30;;;;;;4937588;29;20224;-73
2022/05/09 05:54:00;;;;;;;4.53;1.75;;;22.30;91.00;;;;;;4925290;29;20208;-73
2022/05/09 05:56:27;;;;;;;2.75;1.35;;;21.20;91.90;;;;;;4918837;29;20206;-79
2022/05/09 05:58:54;;;;;;;5.20;1.40;;;20.90;92.30;;;;;;4918225;29;20217;-73
2022/05/09 06:01:22;;;;;;;4.95;1.67;;;20.10;92.90;;;;;;4917355;29;20217;-73
2022/05/09 06:03:51;;;;;;;2.88;1.30;;;19.70;92.70;;;;;;4918437;29;20237;-73
2022/05/09 06:06:18;;;;;;;4.72;1.42;;;19.90;93.60;;;;;;4918468;29;20265;-73
2022/05/09 06:08:46;;;;;;;3.70;1.67;;;20.60;92.80;;;;;;4918368;29;20241;-72
2022/05/09 06:11:13;;;;;;;3.70;1.60;;;21.50;92.30;;;;;;4917740;29;20309;-79
2022/05/09 06:13:40;;;;;;;3.03;1.65;;;21.40;91.40;;;;;;4918942;29;20214;-71
2022/05/09 06:16:07;;;;;;;3.55;1.65;;;21.50;91.50;;;;;;4918459;29;20220;-74
2022/05/09 06:18:35;;;;;;;3.35;1.70;;;20.90;91.60;;;;;;4918024;29;20735;-72
2022/05/09 06:21:04;;;;;;;2.10;1.40;;;21.30;91.80;;;;;;4918234;29;20637;-72
2022/05/09 06:23:31;;;;;;;4.78;1.70;;;22.20;91.30;;;;;;4918344;29;20213;-79
2022/05/09 06:26:00;;;;;;;3.15;1.83;;;23.20;90.50;;;;;;4918080;29;20568;-74
2022/05/09 06:28:26;;;;;;;2.78;1.50;;;23.80;89.60;;;;;;4918038;29;20288;-73
2022/05/09 06:30:53;;;;;;;3.60;1.80;;;24.20;89.60;;;;;;4918011;29;20300;-70
2022/05/09 06:33:24;;;;;;;3.83;2.15;;;24.90;87.60;;;;;;4918082;29;20677;-71
2022/05/09 06:35:52;;;;;;;2.00;1.58;;;23.80;88.10;;;;;;4917902;29;20209;-73
2022/05/09 06:38:22;;;;;;;3.03;1.70;;;24.00;88.50;;;;;;4917989;29;20237;-71
2022/05/09 06:40:49;;;;;;;3.50;1.60;;;23.20;88.70;;;;;;4918762;29;20216;-72
2022/05/09 06:43:16;;;;;;;4.55;1.75;;;23.50;88.90;;;;;;4936003;29;20205;-75
2022/05/09 06:45:43;;;;;;;2.88;1.65;;;23.80;89.10;;;;;;4927895;29;20276;-71
2022/05/09 06:48:10;;;;;;;1.95;1.38;;;24.00;88.10;;;;;;4921019;29;20233;-72
2022/05/09 06:50:39;;;;;;;2.83;1.73;;;23.90;86.90;;;;;;4928195;29;20219;-71
2022/05/09 06:53:07;;;;;;;2.95;1.40;;;23.90;87.70;;;;;;4920243;29;20212;-72
2022/05/09 06:55:35;;;;;;;1.80;1.50;;;24.00;87.40;;;;;;4929253;29;20225;-71
2022/05/09 06:58:06;;;;;;;3.80;1.42;;;23.70;87.10;;;;;;4927149;29;20236;-71
2022/05/09 07:00:33;;;;;;;4.78;1.40;;;24.00;87.50;;;;;;4921035;29;20206;-71
2022/05/09 07:03:00;;;;;;;2.38;1.40;;;23.60;87.70;;;;;;4932842;29;20209;-72
2022/05/09 07:05:27;;;;;;;2.78;1.23;;;23.60;88.20;;;;;;4922315;29;20209;-72
2022/05/09 07:07:54;;;;;;;4.60;1.63;;;23.60;87.70;;;;;;4935727;29;20252;-72
2022/05/09 07:10:22;;;;;;;1.85;1.52;;;23.40;89.10;;;;;;4921980;29;20213;-71
2022/05/09 07:12:51;;;;;;;4.22;1.60;;;23.90;89.20;;;;;;4934214;29;20230;-72
2022/05/09 07:15:21;;;;;;;3.38;1.40;;;24.80;86.60;;;;;;4921703;29;20682;-72
2022/05/09 07:17:50;;;;;;;4.18;1.70;;;24.90;85.20;;;;;;4926844;29;20229;-72
2022/05/09 07:20:17;;;;;;;3.28;1.60;;;24.20;85.50;;;;;;4922495;29;20202;-72
2022/05/09 07:22:44;;;;;;;2.45;1.65;;;24.20;86.40;;;;;;4918523;29;20205;-72
2022/05/09 07:25:13;;;;;;;4.28;1.80;;;24.40;85.90;;;;;;4933072;29;20216;-72
2022/05/09 07:27:42;;;;;;;2.83;1.50;;;24.70;86.50;;;;;;4927620;29;20240;-72
2022/05/09 07:30:12;;;;;;;7.32;1.77;;;24.80;86.00;;;;;;4928102;29;20207;-73
2022/05/09 07:32:38;;;;;;;2.45;1.45;;;26.00;83.90;;;;;;4935445;29;20208;-71
2022/05/09 07:35:06;;;;;;;6.63;1.63;;;25.70;82.70;;;;;;4919554;29;20204;-72
2022/05/09 07:37:33;;;;;;;3.05;1.50;;;24.90;84.40;;;;;;4935231;29;20225;-71
2022/05/09 07:40:00;;;;;;;2.80;1.27;;;25.00;85.20;;;;;;4931376;29;20220;-73
2022/05/09 07:42:27;;;;;;;3.15;1.40;;;25.40;84.90;;;;;;4920023;29;20206;-73
2022/05/09 07:44:56;;;;;;;2.28;1.33;;;25.20;84.40;;;;;;4930545;29;20588;-71
2022/05/09 07:47:24;;;;;;;2.60;1.60;;;25.50;84.50;;;;;;4919762;29;20233;-71
2022/05/09 07:49:52;;;;;;;3.38;1.70;;;26.50;83.30;;;;;;4933845;29;20211;-72
2022/05/09 07:52:19;;;;;;;2.67;1.50;;;26.60;81.40;;;;;;4933709;29;20205;-72
2022/05/09 07:54:46;;;;;;;2.95;1.70;;;25.80;82.40;;;;;;4917366;29;20208;-71
2022/05/09 07:57:13;;;;;;;1.98;1.30;;;25.80;83.50;;;;;;4929280;29;20236;-71
2022/05/09 07:59:40;;;;;;;2.53;1.50;;;27.00;83.10;;;;;;4927085;29;20224;-72
2022/05/09 08:02:07;;;;;;;3.78;1.60;;;27.00;80.40;;;;;;4933305;29;20228;-71
2022/05/09 08:04:36;;;;;;;2.75;1.65;;;26.60;81.50;;;;;;4919132;29;20218;-72
2022/05/09 08:07:04;;;;;;;1.92;1.20;;;27.00;80.60;;;;;;4930614;29;20233;-72
2022/05/09 08:09:30;;;;;;;4.07;1.23;;;27.00;79.00;;;;;;4925446;29;20240;-73
2022/05/09 08:12:00;;;;;;;2.05;1.33;;;27.10;78.50;;;;;;4933414;29;20671;-72
2022/05/09 08:14:27;;;;;;;2.35;1.10;;;27.30;77.00;;;;;;4933582;29;20235;-73
2022/05/09 08:16:54;;;;;;;3.90;1.50;;;27.20;78.50;;;;;;4918422;29;20245;-73
2022/05/09 08:19:21;;;;;;;2.13;1.13;;;27.70;78.20;;;;;;4939431;29;20216;-71
2022/05/09 08:21:51;;;;;;;2.28;1.05;;;28.20;77.10;;;;;;4939423;29;20209;-71
2022/05/09 08:24:18;;;;;;;3.50;1.25;;;28.30;77.10;;;;;;4926416;29;20201;-72
2022/05/09 08:26:45;;;;;;;2.97;1.48;;;29.30;76.50;;;;;;4936081;29;20216;-70
2022/05/09 08:29:12;;;;;;;1.77;1.17;;;28.50;75.50;;;;;;4929440;29;20267;-71
2022/05/09 08:31:39;;;;;;;2.72;1.45;;;29.20;74.70;;;;;;4939391;29;20287;-73
2022/05/09 08:34:06;;;;;;;3.13;1.27;;;29.80;73.50;;;;;;4928242;29;20223;-73
2022/05/09 08:36:48;;;;;;;1.95;1.10;;;29.40;73.30;;;;;;4933539;29;20665;-72
2022/05/09 08:39:17;;;;;;;1.30;1.00;;;28.60;73.90;;;;;;4929501;29;20215;-72
2022/05/09 08:41:55;;;;;;;2.28;1.08;;;29.90;71.60;;;;;;4939509;29;20679;-72
2022/05/09 08:44:44;;;;;;;2.95;1.45;;;29.70;68.00;;;;;;4926141;29;20206;-72
2022/05/09 08:47:33;;;;;;;3.00;1.55;;;29.40;69.50;;;;;;4934884;29;20232;-72
2022/05/09 08:50:13;;;;;;;1.40;0.70;;;29.00;67.70;;;;;;4935871;29;20232;-73
2022/05/09 08:52:45;;;;;;;1.73;0.77;;;28.00;69.00;;;;;;4938957;29;20908;-72
2022/05/09 08:55:14;;;;;;;2.75;0.90;;;27.50;69.50;;;;;;4924536;29;20201;-73
2022/05/09 08:57:46;;;;;;;2.30;0.90;;;27.40;70.10;;;;;;4931367;29;20236;-73
2022/05/09 09:00:16;;;;;;;2.08;0.82;;;27.50;68.90;;;;;;4937394;29;20209;-73
2022/05/09 09:02:48;;;;;;;1.63;0.90;;;27.20;70.90;;;;;;4939388;29;20639;-72
2022/05/09 09:05:22;;;;;;;1.70;0.90;;;26.70;72.20;;;;;;4939863;29;20208;-72
2022/05/09 09:08:05;;;;;;;1.60;0.82;;;26.80;71.60;;;;;;4930289;29;20226;-72
2022/05/09 09:10:40;;;;;;;1.02;0.60;;;26.60;71.90;;;;;;4934981;29;20686;-72
2022/05/09 09:13:28;;;;;;;0.77;0.57;;;25.90;69.90;;;;;;4934250;29;20219;-72
2022/05/09 09:16:12;;;;;;;2.97;0.60;;;26.40;68.70;;;;;;4937836;29;20299;-73
2022/05/09 09:18:54;;;;;;;2.42;0.55;;;26.30;70.20;;;;;;4938871;29;20235;-71
2022/05/09 09:21:30;;;;;;;3.88;0.70;;;26.70;67.40;;;;;;4923201;29;20210;-72
2022/05/09 09:24:21;;;;;;;2.35;0.60;;;27.10;67.50;;;;;;4939574;29;20205;-72
2022/05/09 09:27:00;;;;;;;1.73;0.60;;;27.30;66.20;;;;;;4932054;29;20224;-72
2022/05/09 09:29:32;;;;;;;1.00;0.57;;;26.70;67.20;;;;;;4935397;29;20240;-72
2022/05/09 09:32:04;;;;;;;3.15;0.88;;;26.70;64.80;;;;;;4935845;29;20217;-73
2022/05/09 09:34:37;;;;;;;1.23;0.60;;;27.00;67.20;;;;;;4920720;29;20205;-73
2022/05/09 09:37:12;;;;;;;2.30;0.52;;;27.10;68.10;;;;;;4929568;29;20233;-72
2022/05/09 09:39:39;;;;;;;2.53;0.70;;;26.40;69.10;;;;;;4933560;29;20216;-70
2022/05/09 09:42:07;;;;;;;2.60;1.10;;;26.20;68.60;;;;;;4936050;29;20687;-71
2022/05/09 09:44:38;;;;;;;1.35;0.75;;;25.50;70.70;;;;;;4920311;29;20209;-73
2022/05/09 09:47:11;;;;;;;2.45;0.70;;;25.00;71.20;;;;;;4928934;29;20285;-72
2022/05/09 09:49:40;;;;;;;1.83;0.85;;;25.30;71.30;;;;;;4928721;29;20719;-72
2022/05/09 09:52:22;;;;;;;2.75;0.98;;;25.60;69.60;;;;;;4935114;29;20217;-72
2022/05/09 09:54:54;;;;;;;2.65;1.33;;;25.80;69.10;;;;;;4921561;29;20291;-73
2022/05/09 09:57:28;;;;;;;4.38;0.80;;;25.80;70.30;;;;;;4934265;29;20237;-71
2022/05/09 09:59:56;;;;;;;5.55;0.80;;;24.90;73.00;;;;;;4935571;29;20706;-73
2022/05/09 10:02:25;;;;;;;2.88;0.70;;;24.60;73.60;;;;;;4934922;29;20240;-71
2022/05/09 10:04:55;;;;;;;1.35;0.60;;;24.50;73.70;;;;;;4922354;29;20231;-74
2022/05/09 10:07:29;;;;;;;1.73;0.80;;;23.80;74.50;;;;;;4926544;29;20715;-73
2022/05/09 10:10:11;;;;;;;3.60;0.90;;;23.70;76.40;;;;;;4931353;29;20235;-72
2022/05/09 10:12:40;;;;;;;0.82;0.60;;;23.20;76.00;;;;;;4932801;29;20225;-72
2022/05/09 10:15:29;;;;;;;3.63;0.85;;;22.50;76.50;;;;;;4924470;29;20240;-75
2022/05/09 10:17:58;;;;;;;2.00;0.77;;;22.70;76.20;;;;;;4931751;29;20711;-72
2022/05/09 10:20:33;;;;;;;2.55;0.85;;;22.90;77.60;;;;;;4935945;29;20223;-72
2022/05/09 10:26:00;;;;;;;1.63;0.90;;;23.10;77.30;;;;;;4935608;29;20563;-71
2022/05/09 10:28:32;;;;;;;2.60;0.90;;;23.20;77.20;;;;;;4934657;29;20236;-72
2022/05/09 10:31:17;;;;;;;3.83;0.95;;;23.20;77.80;;;;;;4935800;29;20215;-72
2022/05/09 10:33:49;;;;;;;1.95;1.27;;;23.50;77.20;;;;;;4936458;29;20240;-71
2022/05/09 10:36:21;;;;;;;1.75;0.85;;;23.60;76.40;;;;;;4936880;29;20215;-72
2022/05/09 10:38:54;;;;;;;2.95;0.90;;;23.30;78.50;;;;;;4936913;29;20228;-72
2022/05/09 10:41:30;;;;;;;3.03;0.90;;;23.20;80.30;;;;;;4936870;29;20205;-72
2022/05/09 10:44:04;;;;;;;2.35;0.95;;;23.20;78.70;;;;;;4936713;29;20208;-73
2022/05/09 10:46:40;;;;;;;1.77;0.90;;;23.10;79.50;;;;;;4936455;29;20216;-73
2022/05/09 10:49:11;;;;;;;2.17;0.80;;;22.80;80.20;;;;;;4935933;29;20235;-74
2022/05/09 10:51:49;;;;;;;2.67;0.90;;;22.60;80.90;;;;;;4936764;29;20307;-72
2022/05/09 10:54:21;;;;;;;1.58;0.90;;;22.80;81.80;;;;;;4936104;29;20208;-73
2022/05/09 10:56:54;;;;;;;0.95;0.77;;;23.00;81.70;;;;;;4935948;29;20237;-71
2022/05/09 10:59:26;;;;;;;2.45;1.00;;;23.10;80.50;;;;;;4936743;29;20209;-72
2022/05/09 11:02:01;;;;;;;4.15;1.05;;;23.30;80.60;;;;;;4936557;29;20209;-71
2022/05/09 11:04:30;;;;;;;1.48;0.85;;;23.50;81.40;;;;;;4936619;29;20227;-72
2022/05/09 11:07:07;;;;;;;1.88;1.10;;;23.50;82.60;;;;;;4936516;29;20324;-72
2022/05/09 11:09:52;;;;;;;3.17;1.10;;;23.50;82.80;;;;;;4936319;29;20243;-72
2022/05/09 11:12:36;;;;;;;4.65;1.40;;;23.30;83.40;;;;;;4935440;29;20221;-73
2022/05/09 11:15:14;;;;;;;2.95;1.30;;;23.20;82.20;;;;;;4928790;29;20212;-72
2022/05/09 11:18:21;;;;;;;2.05;1.10;;;23.10;82.80;;;;;;4926115;29;20287;-72
2022/05/09 11:20:53;;;;;;;1.98;1.15;;;23.40;82.30;;;;;;4915120;29;20213;-72
2022/05/09 11:23:32;;;;;;;1.60;0.90;;;23.60;82.50;;;;;;4935687;29;20212;-72
2022/05/09 11:26:13;;;;;;;3.35;1.27;;;23.50;84.00;;;;;;4927143;29;20212;-72
2022/05/09 11:28:57;;;;;;;2.75;1.40;;;23.30;83.30;;;;;;4922168;29;20588;-73
2022/05/09 11:31:33;;;;;;;2.15;1.13;;;23.30;84.70;;;;;;4929541;29;20201;-71
2022/05/09 11:34:12;;;;;;;3.83;1.60;;;23.00;84.60;;;;;;4928064;29;20197;-72
2022/05/09 11:36:50;;;;;;;1.90;1.33;;;22.70;86.50;;;;;;4935405;29;20204;-72
2022/05/09 11:39:27;;;;;;;2.53;1.10;;;22.60;85.80;;;;;;4919840;29;20215;-72
2022/05/09 11:43:27;;;;;;;1.67;1.02;;;22.90;86.50;;;;;;4927543;29;20204;-72
2022/05/09 11:44:55;;;;;;;1.45;1.13;;;23.30;86.40;;;;;;4921017;29;20213;-72
2022/05/09 11:47:34;;;;;;;3.10;1.40;;;23.70;85.90;;;;;;4933069;29;20762;-73
2022/05/09 11:50:21;;;;;;;2.95;1.52;;;23.90;88.10;;;;;;4927365;29;20233;-72
2022/05/09 11:52:48;;;;;;;3.95;2.05;;;23.50;85.80;;;;;;4934973;29;20215;-73
2022/05/09 11:55:19;;;;;;;3.13;1.90;;;23.50;87.30;;;;;;4933066;29;20297;-72
2022/05/09 11:57:49;;;;;;;4.45;1.70;;;23.80;84.70;;;;;;4923302;29;20225;-73
2022/05/09 12:00:47;;;;;;;2.95;1.30;;;24.10;86.00;;;;;;4924329;29;20221;-73
2022/05/09 12:03:16;;;;;;;3.03;1.58;;;24.00;86.90;;;;;;4931606;29;20652;-72
2022/05/09 12:06:00;;;;;;;2.65;1.42;;;24.20;84.90;;;;;;4922244;29;20260;-73
2022/05/09 12:08:42;;;;;;;2.50;1.80;;;24.30;85.20;;;;;;4929410;29;20314;-73
2022/05/09 12:11:32;;;;;;;4.63;1.92;;;24.20;85.30;;;;;;4931554;29;20216;-73
2022/05/09 12:14:01;;;;;;;4.75;1.75;;;24.40;86.60;;;;;;4925283;29;20201;-72
2022/05/09 12:16:44;;;;;;;1.83;1.42;;;24.30;86.40;;;;;;4923040;29;20201;-72
2022/05/09 12:19:30;;;;;;;5.35;1.30;;;24.40;87.40;;;;;;4932031;29;20212;-73
2022/05/09 12:22:33;;;;;;;4.43;1.83;;;24.60;86.40;;;;;;4922407;29;20208;-73
2022/05/09 12:25:00;;;;;;;2.50;1.52;;;24.80;86.40;;;;;;4934085;29;20255;-73
2022/05/09 12:27:42;;;;;;;2.92;1.55;;;24.90;86.70;;;;;;4929630;29;20217;-73
2022/05/09 12:30:13;;;;;;;1.60;1.40;;;24.80;85.60;;;;;;4924527;29;20573;-72
2022/05/09 12:32:41;;;;;;;3.97;1.50;;;24.70;85.80;;;;;;4926402;29;20208;-73
2022/05/09 12:35:10;;;;;;;2.80;1.65;;;24.60;86.40;;;;;;4931759;29;20205;-74
2022/05/09 12:37:45;;;;;;;3.53;1.42;;;24.60;87.00;;;;;;4919412;29;20713;-73
2022/05/09 12:40:25;;;;;;;2.15;1.70;;;24.40;87.20;;;;;;4933825;29;20212;-72
2022/05/09 12:42:57;;;;;;;4.68;1.58;;;24.30;86.40;;;;;;4932372;29;20672;-72
2022/05/09 12:45:25;;;;;;;3.33;1.63;;;24.40;86.20;;;;;;4918127;29;20196;-72
2022/05/09 12:47:52;;;;;;;2.45;1.65;;;24.50;86.60;;;;;;4926848;29;20221;-74
2022/05/09 12:50:27;;;;;;;2.50;1.35;;;24.60;86.30;;;;;;4926615;29;20243;-74
2022/05/09 12:52:57;;;;;;;2.35;1.70;;;24.60;87.40;;;;;;4919361;29;20209;-77
2022/05/09 12:58:21;;;;;;;2.90;1.70;;;24.90;87.40;;;;;;4922646;29;20235;-76
2022/05/09 13:00:48;;;;;;;2.13;1.48;;;24.80;87.00;;;;;;4927410;29;20206;-83
2022/05/09 13:03:17;;;;;;;2.55;1.60;;;24.80;87.10;;;;;;4926025;29;20210;-75
2022/05/09 13:05:45;;;;;;;6.50;1.80;;;24.90;86.90;;;;;;4916248;29;20217;-76
2022/05/09 13:08:14;;;;;;;2.63;1.42;;;25.10;86.30;;;;;;4934125;29;20236;-74
2022/05/09 13:10:49;;;;;;;3.42;1.50;;;25.10;87.70;;;;;;4933416;29;20244;-75
2022/05/09 13:13:29;;;;;;;3.97;1.70;;;25.00;87.30;;;;;;4926625;29;20204;-74
2022/05/09 13:15:57;;;;;;;2.83;1.90;;;25.00;87.30;;;;;;4936816;29;20227;-76
2022/05/09 13:18:26;;;;;;;2.08;1.30;;;24.60;87.40;;;;;;4935248;29;20237;-73
2022/05/09 13:20:58;;;;;;;2.55;1.50;;;24.90;87.70;;;;;;4923864;29;20209;-74